createdAt,value
2022-12-25T00:00:07.871Z,3.88
2022-12-25T00:02:09.458Z,3.38
2022-12-25T00:04:11.157Z,3.53
2022-12-25T00:06:12.859Z,3.55
2022-12-25T00:10:17.553Z,4.13
2022-12-25T00:12:19.229Z,3.53
2022-12-25T00:16:24.365Z,3.47
2022-12-25T00:18:26.298Z,3.33
2022-12-25T00:20:28.025Z,3.08
2022-12-25T00:22:30.190Z,2.83
2022-12-25T00:24:33.086Z,3.60
2022-12-25T00:26:34.662Z,3.45
2022-12-25T00:30:38.260Z,3.50
2022-12-25T00:32:39.925Z,3.50
2022-12-25T00:36:42.831Z,3.70
2022-12-25T00:38:47.494Z,3.40
2022-12-25T00:40:50.421Z,3.30
2022-12-25T00:42:52.095Z,3.30
2022-12-25T00:44:53.766Z,3.72
2022-12-25T00:48:58.741Z,3.08
2022-12-25T00:51:02.448Z,3.20
2022-12-25T00:53:04.075Z,3.15
2022-12-25T00:57:08.871Z,3.00
2022-12-25T00:59:10.766Z,3.40
2022-12-25T01:01:13.748Z,3.50
2022-12-25T01:03:16.592Z,3.28
2022-12-25T01:05:18.183Z,3.10
2022-12-25T01:07:20.855Z,3.60
2022-12-25T01:09:22.574Z,3.60
2022-12-25T01:11:24.153Z,3.08
2022-12-25T01:15:28.973Z,3.55
2022-12-25T01:19:32.467Z,3.28
2022-12-25T01:21:34.284Z,3.15
2022-12-25T01:23:36.400Z,3.20
2022-12-25T01:25:37.959Z,3.28
2022-12-25T01:29:45.485Z,3.03
2022-12-25T01:31:47.419Z,3.10
2022-12-25T01:33:49.284Z,2.90
2022-12-25T01:35:53.499Z,3.50
2022-12-25T01:37:55.060Z,3.40
2022-12-25T01:39:56.628Z,3.45
2022-12-25T01:44:03.920Z,2.80
2022-12-25T01:46:07.385Z,2.92
2022-12-25T01:48:14.546Z,3.47
2022-12-25T01:50:16.912Z,2.92
2022-12-25T01:52:24.280Z,3.42
2022-12-25T01:54:29.988Z,3.28
2022-12-25T01:56:32.893Z,3.50
2022-12-25T01:58:35.755Z,3.60
2022-12-25T02:00:37.386Z,3.33
2022-12-25T02:02:45.069Z,3.30
2022-12-25T02:04:50.443Z,3.35
2022-12-25T02:06:52.423Z,3.10
2022-12-25T02:08:54.232Z,3.20
2022-12-25T02:10:55.900Z,3.20
2022-12-25T02:15:05.758Z,3.20
2022-12-25T02:17:22.080Z,3.30
2022-12-25T02:19:37.378Z,3.30
2022-12-25T02:21:59.042Z,3.65
2022-12-25T02:24:18.643Z,3.55
2022-12-25T02:26:50.751Z,3.67
2022-12-25T02:29:02.681Z,3.55
2022-12-25T02:31:10.232Z,3.95
2022-12-25T02:33:16.657Z,3.50
2022-12-25T02:35:24.264Z,4.50
2022-12-25T02:37:29.749Z,5.07
2022-12-25T02:39:38.797Z,4.90
2022-12-25T02:41:43.594Z,3.20
2022-12-25T02:43:47.006Z,3.45
2022-12-25T02:45:54.866Z,3.50
2022-12-25T02:47:57.257Z,3.58
2022-12-25T02:50:00.812Z,3.30
2022-12-25T02:52:06.659Z,3.55
2022-12-25T02:54:12.730Z,4.03
2022-12-25T02:56:14.665Z,3.45
2022-12-25T02:58:20.370Z,3.70
2022-12-25T03:00:22.487Z,3.67
2022-12-25T03:02:28.418Z,3.33
2022-12-25T03:04:31.879Z,3.25
2022-12-25T03:06:36.357Z,3.38
2022-12-25T03:08:40.513Z,3.75
2022-12-25T03:10:46.112Z,4.15
2022-12-25T03:12:53.493Z,3.17
2022-12-25T03:14:55.309Z,3.50
2022-12-25T03:17:00.247Z,3.70
2022-12-25T03:19:03.466Z,3.58
2022-12-25T03:21:05.830Z,3.38
2022-12-25T03:23:08.179Z,3.63
2022-12-25T03:25:09.892Z,3.40
2022-12-25T03:27:11.536Z,3.58
2022-12-25T03:31:21.343Z,3.10
2022-12-25T03:33:47.689Z,3.38
2022-12-25T03:35:58.701Z,2.88
2022-12-25T03:38:13.244Z,2.97
2022-12-25T03:40:26.850Z,3.30
2022-12-25T03:42:36.699Z,3.60
2022-12-25T03:44:44.134Z,3.70
2022-12-25T03:46:50.103Z,3.80
2022-12-25T03:48:58.930Z,3.28
2022-12-25T03:51:06.784Z,4.20
2022-12-25T03:53:12.563Z,3.70
2022-12-25T03:55:17.312Z,3.90
2022-12-25T03:57:18.921Z,3.70
2022-12-25T04:01:25.823Z,3.47
2022-12-25T04:03:27.429Z,3.45
2022-12-25T04:05:29.303Z,3.50
2022-12-25T04:07:32.240Z,3.13
2022-12-25T04:09:33.728Z,3.40
2022-12-25T04:11:35.399Z,3.58
2022-12-25T04:15:38.477Z,3.47
2022-12-25T04:17:40.328Z,3.58
2022-12-25T04:19:41.936Z,3.03
2022-12-25T04:21:43.496Z,3.20
2022-12-25T04:23:46.453Z,3.85
2022-12-25T04:25:47.987Z,3.38
2022-12-25T04:27:49.447Z,3.20
2022-12-25T04:29:50.993Z,3.13
2022-12-25T04:31:52.517Z,2.97
2022-12-25T04:33:54.007Z,3.35
2022-12-25T04:35:55.569Z,3.47
2022-12-25T04:37:57.123Z,4.28
2022-12-25T04:39:59.960Z,3.35
2022-12-25T04:42:02.570Z,3.55
2022-12-25T04:44:04.408Z,3.47
2022-12-25T04:46:06.437Z,3.63
2022-12-25T04:48:08.148Z,3.38
2022-12-25T04:52:11.274Z,3.42
2022-12-25T04:54:13.078Z,3.55
2022-12-25T04:56:16.839Z,3.58
2022-12-25T04:58:18.407Z,3.35
2022-12-25T05:00:20.192Z,3.42
2022-12-25T05:02:21.835Z,3.60
2022-12-25T05:04:23.463Z,2.97
2022-12-25T05:06:25.087Z,3.42
2022-12-25T05:10:29.518Z,2.60
2022-12-25T05:12:32.485Z,3.13
2022-12-25T05:14:34.149Z,2.88
2022-12-25T05:18:37.501Z,3.05
2022-12-25T05:20:40.471Z,2.97
2022-12-25T05:22:42.390Z,3.22
2022-12-25T05:24:43.976Z,3.35
2022-12-25T05:26:45.529Z,3.10
2022-12-25T05:28:48.941Z,3.00
2022-12-25T05:30:50.559Z,2.85
2022-12-25T05:34:53.571Z,3.05
2022-12-25T05:36:55.100Z,3.25
2022-12-25T05:38:56.676Z,2.78
2022-12-25T05:40:58.270Z,2.50
2022-12-25T05:42:59.839Z,5.07
2022-12-25T05:45:02.856Z,2.75
2022-12-25T05:47:04.559Z,2.95
2022-12-25T05:49:06.333Z,2.53
2022-12-25T05:53:12.360Z,3.20
2022-12-25T05:55:13.984Z,2.28
2022-12-25T05:57:15.571Z,2.95
2022-12-25T05:59:17.075Z,2.75
2022-12-25T06:01:22.334Z,2.85
2022-12-25T06:03:24.269Z,3.33
2022-12-25T06:05:26.253Z,2.60
2022-12-25T06:07:27.756Z,3.10
2022-12-25T06:09:29.293Z,2.70
2022-12-25T06:11:30.786Z,2.80
2022-12-25T06:13:33.147Z,3.08
2022-12-25T06:15:34.758Z,2.80
2022-12-25T06:17:40.347Z,2.75
2022-12-25T06:19:42.756Z,3.10
2022-12-25T06:21:44.340Z,3.10
2022-12-25T06:23:46.354Z,2.90
2022-12-25T06:25:47.964Z,3.40
2022-12-25T06:27:49.499Z,3.38
2022-12-25T06:29:51.311Z,3.35
2022-12-25T06:31:52.978Z,3.33
2022-12-25T06:35:57.399Z,3.30
2022-12-25T06:40:00.395Z,2.88
2022-12-25T06:42:02.002Z,3.20
2022-12-25T06:46:09.809Z,2.88
2022-12-25T06:48:11.495Z,2.75
2022-12-25T06:50:14.504Z,3.45
2022-12-25T06:52:16.112Z,2.50
2022-12-25T06:54:20.510Z,2.90
2022-12-25T06:56:24.596Z,2.90
2022-12-25T06:58:26.132Z,2.88
2022-12-25T07:00:27.695Z,3.35
2022-12-25T07:02:29.816Z,3.00
2022-12-25T07:04:34.471Z,3.10
2022-12-25T07:06:39.706Z,2.70
2022-12-25T07:08:41.370Z,3.15
2022-12-25T07:12:44.812Z,2.88
2022-12-25T07:14:46.809Z,3.00
2022-12-25T07:16:49.087Z,3.22
2022-12-25T07:18:50.667Z,3.63
2022-12-25T07:20:52.984Z,3.10
2022-12-25T07:22:56.208Z,3.92
2022-12-25T07:24:57.789Z,3.60
2022-12-25T07:26:59.396Z,3.42
2022-12-25T07:31:03.526Z,3.47
2022-12-25T07:33:05.084Z,3.03
2022-12-25T07:35:07.132Z,3.20
2022-12-25T07:37:08.721Z,3.13
2022-12-25T07:39:12.602Z,3.53
2022-12-25T07:41:14.143Z,2.80
2022-12-25T07:43:15.779Z,2.88
2022-12-25T07:45:17.499Z,3.58
2022-12-25T07:47:19.063Z,2.70
2022-12-25T07:49:20.708Z,2.63
2022-12-25T07:53:23.636Z,2.60
2022-12-25T07:55:26.573Z,3.03
2022-12-25T07:57:29.815Z,3.80
2022-12-25T07:59:31.329Z,3.13
2022-12-25T08:01:32.938Z,2.80
2022-12-25T08:03:35.304Z,3.42
2022-12-25T08:05:37.005Z,3.30
2022-12-25T08:07:38.489Z,3.10
2022-12-25T08:09:39.978Z,3.15
2022-12-25T08:11:46.772Z,3.40
2022-12-25T08:13:48.229Z,3.00
2022-12-25T08:15:49.822Z,3.10
2022-12-25T08:17:51.353Z,3.10
2022-12-25T08:19:52.862Z,3.13
2022-12-25T08:21:54.784Z,3.10
2022-12-25T08:23:56.702Z,3.08
2022-12-25T08:26:04.478Z,2.92
2022-12-25T08:28:08.516Z,3.28
2022-12-25T08:30:10.462Z,3.25
2022-12-25T08:32:11.982Z,3.10
2022-12-25T08:34:13.796Z,3.40
2022-12-25T08:36:15.814Z,3.33
2022-12-25T08:38:17.361Z,2.92
2022-12-25T08:40:18.961Z,3.20
2022-12-25T08:42:20.498Z,3.40
2022-12-25T08:44:23.560Z,3.70
2022-12-25T08:46:25.110Z,9.93
2022-12-25T08:48:26.618Z,6.68
2022-12-25T08:50:28.091Z,8.23
2022-12-25T08:52:29.625Z,6.18
2022-12-25T08:54:31.221Z,4.85
2022-12-25T08:56:32.688Z,6.38
2022-12-25T08:58:34.354Z,4.43
2022-12-25T09:02:38.679Z,4.93
2022-12-25T09:04:40.343Z,3.47
2022-12-25T09:06:41.814Z,2.80
2022-12-25T09:08:48.645Z,4.05
2022-12-25T09:10:51.040Z,4.43
2022-12-25T09:12:52.538Z,4.70
2022-12-25T09:14:54.036Z,3.72
2022-12-25T09:16:57.056Z,3.95
2022-12-25T09:18:58.665Z,3.90
2022-12-25T09:21:03.788Z,3.80
2022-12-25T09:23:11.594Z,2.88
2022-12-25T09:25:15.166Z,3.05
2022-12-25T09:29:18.061Z,2.88
2022-12-25T09:31:21.261Z,3.00
2022-12-25T09:33:24.825Z,3.90
2022-12-25T09:35:26.356Z,3.72
2022-12-25T09:37:28.588Z,3.53
2022-12-25T09:39:30.190Z,3.55
2022-12-25T09:41:35.643Z,3.67
2022-12-25T09:43:40.476Z,4.25
2022-12-25T09:45:43.887Z,4.45
2022-12-25T09:47:48.527Z,5.07
2022-12-25T09:49:58.483Z,5.13
2022-12-25T09:52:05.123Z,4.45
2022-12-25T09:54:14.325Z,5.45
2022-12-25T09:56:18.865Z,4.45
2022-12-25T09:58:20.398Z,5.57
2022-12-25T10:00:24.050Z,4.88
2022-12-25T10:02:45.938Z,5.40
2022-12-25T10:05:02.119Z,6.15
2022-12-25T10:07:14.345Z,5.97
2022-12-25T10:09:29.942Z,5.38
2022-12-25T10:11:45.753Z,6.13
2022-12-25T10:14:05.223Z,5.50
2022-12-25T10:16:19.986Z,5.95
2022-12-25T10:18:56.989Z,5.78
2022-12-25T10:21:02.044Z,5.88
2022-12-25T10:23:13.543Z,5.88
2022-12-25T10:25:17.653Z,5.13
2022-12-25T10:27:24.971Z,6.65
2022-12-25T10:29:31.561Z,5.45
2022-12-25T10:31:35.917Z,6.22
2022-12-25T10:33:37.521Z,5.93
2022-12-25T10:35:40.006Z,5.78
2022-12-25T10:37:46.367Z,5.63
2022-12-25T10:39:48.020Z,6.07
2022-12-25T10:42:01.698Z,6.80
2022-12-25T10:44:13.444Z,6.93
2022-12-25T10:46:16.762Z,7.25
2022-12-25T10:48:22.638Z,6.63
2022-12-25T10:50:25.630Z,6.93
2022-12-25T10:52:29.320Z,7.10
2022-12-25T10:54:34.655Z,6.43
2022-12-25T10:56:36.508Z,6.32
2022-12-25T10:58:38.344Z,6.30
2022-12-25T11:00:40.037Z,6.90
2022-12-25T11:04:43.808Z,5.35
2022-12-25T11:06:56.392Z,5.78
2022-12-25T11:09:02.098Z,6.05
2022-12-25T11:11:06.462Z,6.07
2022-12-25T11:13:19.006Z,6.40
2022-12-25T11:15:34.840Z,6.93
2022-12-25T11:17:36.722Z,7.07
2022-12-25T11:19:38.352Z,5.95
2022-12-25T11:23:44.930Z,5.82
2022-12-25T11:25:54.918Z,6.03
2022-12-25T11:27:59.994Z,6.47
2022-12-25T11:30:04.239Z,6.32
2022-12-25T11:32:16.130Z,6.15
2022-12-25T11:34:28.361Z,5.25
2022-12-25T11:36:41.880Z,5.22
2022-12-25T11:38:43.517Z,5.40
2022-12-25T11:42:51.940Z,5.13
2022-12-25T11:45:02.259Z,4.80
2022-12-25T11:47:08.145Z,5.72
2022-12-25T11:49:14.373Z,6.10
2022-12-25T11:51:17.271Z,5.25
2022-12-25T11:53:22.260Z,4.72
2022-12-25T11:55:34.100Z,4.32
2022-12-25T11:57:38.166Z,4.68
2022-12-25T11:59:49.629Z,4.50
2022-12-25T12:01:58.871Z,5.13
2022-12-25T12:04:02.930Z,4.43
2022-12-25T12:06:08.794Z,4.65
2022-12-25T12:08:11.108Z,4.40
2022-12-25T12:10:18.064Z,4.85
2022-12-25T12:12:28.433Z,4.35
2022-12-25T12:14:42.562Z,4.15
2022-12-25T12:16:44.190Z,4.07
2022-12-25T12:21:05.344Z,4.30
2022-12-25T12:25:18.119Z,4.88
2022-12-25T12:27:24.618Z,5.40
2022-12-25T12:29:29.340Z,5.15
2022-12-25T12:31:39.109Z,5.82
2022-12-25T12:33:43.738Z,5.03
2022-12-25T12:35:48.263Z,5.60
2022-12-25T12:37:53.421Z,5.93
2022-12-25T12:39:55.620Z,5.07
2022-12-25T12:41:57.524Z,4.97
2022-12-25T12:44:03.339Z,5.47
2022-12-25T12:46:14.438Z,4.30
2022-12-25T12:48:16.687Z,4.95
2022-12-25T12:50:32.113Z,5.15
2022-12-25T12:52:37.703Z,4.47
2022-12-25T12:54:56.716Z,4.53
2022-12-25T12:57:00.258Z,6.25
2022-12-25T12:59:02.078Z,4.40
2022-12-25T13:01:13.843Z,5.80
2022-12-25T13:03:40.732Z,11.57
2022-12-25T13:05:47.379Z,6.97
2022-12-25T13:10:09.332Z,6.72
2022-12-25T13:12:12.805Z,6.28
2022-12-25T13:14:17.184Z,5.90
2022-12-25T13:16:26.866Z,4.63
2022-12-25T13:18:30.330Z,4.72
2022-12-25T13:20:40.417Z,4.47
2022-12-25T13:22:43.519Z,5.13
2022-12-25T13:24:55.572Z,3.53
2022-12-25T13:26:57.965Z,4.60
2022-12-25T13:28:59.700Z,4.43
2022-12-25T13:31:06.701Z,4.05
2022-12-25T13:33:17.041Z,6.97
2022-12-25T13:35:20.536Z,6.10
2022-12-25T13:37:24.671Z,4.30
2022-12-25T13:39:27.140Z,4.68
2022-12-25T13:41:43.259Z,6.93
2022-12-25T13:43:45.647Z,4.07
2022-12-25T13:45:54.316Z,5.35
2022-12-25T13:47:57.002Z,4.68
2022-12-25T13:50:15.409Z,4.40
2022-12-25T13:52:19.113Z,4.85
2022-12-25T13:54:21.040Z,4.50
2022-12-25T13:56:23.021Z,4.30
2022-12-25T13:58:28.941Z,4.93
2022-12-25T14:00:36.144Z,4.45
2022-12-25T14:02:39.306Z,4.53
2022-12-25T14:04:44.566Z,4.93
2022-12-25T14:06:47.725Z,4.45
2022-12-25T14:08:50.443Z,5.05
2022-12-25T14:10:55.705Z,4.40
2022-12-25T14:13:00.675Z,4.63
2022-12-25T14:15:17.899Z,4.57
2022-12-25T14:17:20.741Z,4.25
2022-12-25T14:19:27.748Z,3.95
2022-12-25T14:21:36.941Z,4.43
2022-12-25T14:23:42.495Z,4.28
2022-12-25T14:25:46.407Z,4.25
2022-12-25T14:27:49.439Z,4.35
2022-12-25T14:29:53.382Z,4.43
2022-12-25T14:32:09.218Z,4.50
2022-12-25T14:34:15.847Z,3.90
2022-12-25T14:36:19.354Z,4.57
2022-12-25T14:38:23.969Z,4.45
2022-12-25T14:40:30.148Z,4.50
2022-12-25T14:42:33.261Z,4.05
2022-12-25T14:44:39.517Z,4.53
2022-12-25T14:46:44.912Z,4.65
2022-12-25T14:48:59.130Z,4.63
2022-12-25T14:51:03.582Z,4.70
2022-12-25T14:53:22.178Z,4.30
2022-12-25T14:55:26.030Z,4.47
2022-12-25T14:57:30.994Z,4.10
2022-12-25T14:59:32.720Z,4.78
2022-12-25T15:01:39.874Z,4.13
2022-12-25T15:03:41.882Z,3.83
2022-12-25T15:05:45.405Z,4.70
2022-12-25T15:07:57.665Z,5.03
2022-12-25T15:10:36.734Z,4.72
2022-12-25T15:12:21.683Z,3.92
2022-12-25T15:14:24.246Z,4.15
2022-12-25T15:16:28.581Z,4.18
2022-12-25T15:18:33.945Z,3.75
2022-12-25T15:20:35.585Z,4.18
2022-12-25T15:25:02.436Z,4.15
2022-12-25T15:27:04.390Z,4.07
2022-12-25T15:31:19.796Z,4.53
2022-12-25T15:33:21.715Z,3.83
2022-12-25T15:35:23.558Z,3.85
2022-12-25T15:37:25.242Z,4.50
2022-12-25T15:39:28.499Z,4.18
2022-12-25T15:41:31.754Z,4.20
2022-12-25T15:43:41.529Z,3.70
2022-12-25T15:45:43.253Z,4.32
2022-12-25T15:47:44.791Z,4.30
2022-12-25T15:49:46.382Z,4.00
2022-12-25T15:53:49.560Z,3.85
2022-12-25T15:55:52.743Z,4.25
2022-12-25T15:57:54.480Z,4.50
2022-12-25T15:59:56.398Z,3.92
2022-12-25T16:02:00.218Z,4.00
2022-12-25T16:04:04.474Z,4.13
2022-12-25T16:06:05.994Z,4.15
2022-12-25T16:08:08.732Z,4.53
2022-12-25T16:10:14.916Z,4.78
2022-12-25T16:12:19.726Z,4.60
2022-12-25T16:14:21.523Z,4.75
2022-12-25T16:16:23.469Z,4.40
2022-12-25T16:18:25.489Z,4.43
2022-12-25T16:20:27.071Z,4.30
2022-12-25T16:24:30.199Z,3.88
2022-12-25T16:26:31.839Z,4.07
2022-12-25T16:30:36.490Z,3.97
2022-12-25T16:32:38.075Z,4.28
2022-12-25T16:36:42.273Z,3.88
2022-12-25T16:38:43.854Z,4.45
2022-12-25T16:42:49.252Z,4.30
2022-12-25T16:44:52.311Z,4.40
2022-12-25T16:46:53.927Z,3.63
2022-12-25T16:48:55.655Z,4.18
2022-12-25T16:52:59.010Z,4.05
2022-12-25T16:55:00.853Z,4.10
2022-12-25T16:57:02.745Z,4.47
2022-12-25T17:01:09.613Z,4.35
2022-12-25T17:03:11.337Z,4.30
2022-12-25T17:05:13.009Z,4.45
2022-12-25T17:09:16.676Z,4.47
2022-12-25T17:13:20.522Z,4.50
2022-12-25T17:15:22.120Z,4.63
2022-12-25T17:19:26.981Z,4.65
2022-12-25T17:21:29.179Z,5.20
2022-12-25T17:23:30.729Z,4.50
2022-12-25T17:25:33.402Z,4.28
2022-12-25T17:27:34.991Z,4.32
2022-12-25T17:31:38.669Z,3.80
2022-12-25T17:33:44.051Z,4.13
2022-12-25T17:35:45.679Z,4.72
2022-12-25T17:39:48.920Z,4.75
2022-12-25T17:41:50.973Z,4.68
2022-12-25T17:43:52.569Z,4.63
2022-12-25T17:47:55.864Z,4.80
2022-12-25T17:49:58.773Z,4.15
2022-12-25T17:52:09.219Z,5.00
2022-12-25T17:54:12.251Z,4.43
2022-12-25T17:56:15.530Z,4.00
2022-12-25T17:58:17.353Z,4.60
2022-12-25T18:00:19.825Z,4.40
2022-12-25T18:02:21.758Z,4.60
2022-12-25T18:04:23.843Z,4.50
2022-12-25T18:06:27.228Z,4.57
2022-12-25T18:08:33.867Z,4.45
2022-12-25T18:10:42.401Z,4.45
2022-12-25T18:12:44.359Z,4.53
2022-12-25T18:14:45.945Z,4.88
2022-12-25T18:18:52.628Z,5.10
2022-12-25T18:20:54.738Z,5.63
2022-12-25T18:22:58.288Z,5.25
2022-12-25T18:25:01.158Z,5.38
2022-12-25T18:27:03.051Z,6.00
2022-12-25T18:29:05.082Z,4.82
2022-12-25T18:31:08.254Z,5.13
2022-12-25T18:33:10.588Z,5.25
2022-12-25T18:35:12.653Z,7.43
2022-12-25T18:37:14.260Z,5.20
2022-12-25T18:41:19.973Z,4.95
2022-12-25T18:43:21.519Z,5.22
2022-12-25T18:45:43.190Z,5.30
2022-12-25T18:47:45.683Z,4.85
2022-12-25T18:49:47.492Z,5.35
2022-12-25T18:51:49.074Z,5.00
2022-12-25T18:55:56.601Z,4.57
2022-12-25T18:57:59.119Z,6.28
2022-12-25T19:00:01.860Z,4.60
2022-12-25T19:02:03.644Z,5.70
2022-12-25T19:04:06.045Z,5.28
2022-12-25T19:06:08.087Z,4.80
2022-12-25T19:08:10.005Z,6.45
2022-12-25T19:10:11.851Z,4.90
2022-12-25T19:12:14.806Z,5.70
2022-12-25T19:14:16.317Z,7.10
2022-12-25T19:16:18.283Z,6.07
2022-12-25T19:18:20.193Z,6.40
2022-12-25T19:20:21.948Z,5.45
2022-12-25T19:22:23.797Z,6.00
2022-12-25T19:24:26.193Z,5.88
2022-12-25T19:26:27.880Z,5.68
2022-12-25T19:28:30.804Z,5.13
2022-12-25T19:30:32.404Z,5.38
2022-12-25T19:34:35.667Z,5.13
2022-12-25T19:36:38.397Z,6.40
2022-12-25T19:38:40.642Z,7.30
2022-12-25T19:40:43.086Z,5.75
2022-12-25T19:42:45.003Z,5.50
2022-12-25T19:44:47.906Z,6.28
2022-12-25T19:46:49.615Z,5.70
2022-12-25T19:48:51.705Z,8.38
2022-12-25T19:50:53.925Z,5.90
2022-12-25T19:52:55.766Z,6.75
2022-12-25T19:54:57.490Z,6.32
2022-12-25T19:56:59.069Z,6.60
2022-12-25T20:01:07.115Z,6.60
2022-12-25T20:03:09.553Z,6.68
2022-12-25T20:05:11.612Z,6.90
2022-12-25T20:07:13.506Z,6.57
2022-12-25T20:09:20.833Z,5.50
2022-12-25T20:11:24.916Z,6.43
2022-12-25T20:13:26.569Z,5.47
2022-12-25T20:15:28.765Z,5.78
2022-12-25T20:17:31.786Z,8.63
2022-12-25T20:19:33.726Z,7.43
2022-12-25T20:21:35.643Z,6.18
2022-12-25T20:23:37.442Z,7.38
2022-12-25T20:25:40.491Z,7.05
2022-12-25T20:27:42.467Z,9.48
2022-12-25T20:29:44.065Z,6.75
2022-12-25T20:33:48.575Z,7.45
2022-12-25T20:35:51.021Z,7.13
2022-12-25T20:37:52.710Z,8.68
2022-12-25T20:39:54.485Z,7.32
2022-12-25T20:41:56.203Z,6.82
2022-12-25T20:43:58.233Z,6.57
2022-12-25T20:46:00.046Z,6.55
2022-12-25T20:48:01.641Z,8.07
2022-12-25T20:52:06.985Z,8.63
2022-12-25T20:56:11.877Z,6.05
2022-12-25T20:58:13.857Z,6.53
2022-12-25T21:00:16.057Z,6.05
2022-12-25T21:02:34.191Z,5.93
2022-12-25T21:04:38.037Z,5.78
2022-12-25T21:06:41.316Z,5.63
2022-12-25T21:08:42.942Z,6.88
2022-12-25T21:12:46.049Z,5.95
2022-12-25T21:14:47.603Z,6.50
2022-12-25T21:18:52.921Z,6.20
2022-12-25T21:20:57.229Z,5.40
2022-12-25T21:23:00.377Z,5.68
2022-12-25T21:25:02.016Z,6.78
2022-12-25T21:29:05.665Z,6.30
2022-12-25T21:31:08.858Z,6.07
2022-12-25T21:33:13.721Z,7.00
2022-12-25T21:35:18.317Z,6.68
2022-12-25T21:39:22.673Z,5.40
2022-12-25T21:41:24.995Z,5.38
2022-12-25T21:43:26.777Z,6.82
2022-12-25T21:45:28.925Z,5.85
2022-12-25T21:48:01.955Z,6.13
2022-12-25T21:49:52.256Z,7.15
2022-12-25T21:51:54.026Z,6.10
2022-12-25T21:53:55.768Z,6.70
2022-12-25T21:56:02.066Z,6.45
2022-12-25T21:58:03.817Z,5.05
2022-12-25T22:00:06.653Z,5.47
2022-12-25T22:02:09.522Z,5.78
2022-12-25T22:04:12.943Z,5.82
2022-12-25T22:06:20.938Z,5.55
2022-12-25T22:08:23.103Z,6.10
2022-12-25T22:10:24.812Z,5.80
2022-12-25T22:12:33.862Z,5.43
2022-12-25T22:14:51.277Z,5.38
2022-12-25T22:16:54.883Z,5.25
2022-12-25T22:18:56.526Z,4.75
2022-12-25T22:22:59.994Z,4.90
2022-12-25T22:25:04.233Z,5.30
2022-12-25T22:27:06.026Z,4.82
2022-12-25T22:29:09.417Z,6.20
2022-12-25T22:31:11.322Z,5.00
2022-12-25T22:33:12.935Z,5.97
2022-12-25T22:37:17.320Z,4.85
2022-12-25T22:39:18.864Z,4.70
2022-12-25T22:43:21.917Z,5.25
2022-12-25T22:45:25.762Z,4.30
2022-12-25T22:47:27.629Z,4.78
2022-12-25T22:49:29.659Z,4.57
2022-12-25T22:51:31.383Z,4.30
2022-12-25T22:53:33.594Z,4.70
2022-12-25T22:55:35.179Z,4.57
2022-12-25T22:59:38.207Z,4.40
2022-12-25T23:01:41.628Z,4.82
2022-12-25T23:03:43.400Z,4.20
2022-12-25T23:05:45.170Z,4.20
2022-12-25T23:07:46.854Z,4.05
2022-12-25T23:09:48.600Z,3.97
2022-12-25T23:11:50.541Z,3.75
2022-12-25T23:13:52.279Z,4.00
2022-12-25T23:15:54.202Z,4.60
2022-12-25T23:17:57.451Z,5.75
2022-12-25T23:20:00.766Z,5.60
2022-12-25T23:22:02.395Z,3.83
2022-12-25T23:24:04.537Z,3.70
2022-12-25T23:26:06.586Z,3.97
2022-12-25T23:28:08.324Z,3.65
2022-12-25T23:30:16.058Z,4.13
2022-12-25T23:32:21.292Z,3.65
2022-12-25T23:34:24.388Z,3.90
2022-12-25T23:36:26.623Z,3.58
2022-12-25T23:38:28.226Z,3.80
2022-12-25T23:42:31.584Z,3.50
2022-12-25T23:44:33.516Z,3.42
2022-12-25T23:46:35.806Z,3.20
2022-12-25T23:48:37.625Z,4.07
2022-12-25T23:50:40.913Z,3.63
2022-12-25T23:52:42.758Z,3.85
2022-12-25T23:54:45.044Z,3.65
2022-12-25T23:56:46.609Z,3.65
